Time;durP1;ratioP1;P1;durP2;ratioP2;P2;SDS_P1;SDS_P2;PMS_P1;PMS_P2;Temp;Humidity;BMP_temperature;BMP_pressure;BME280_temperature;BME280_humidity;BME280_pressure;Samples;Min_cycle;Max_cycle;Signal;HPM_P1;HPM_P2
2022/01/13 00:02:31;;;;;;;81.45;53.97;;;;;;;;;;5013585;28;20221;-85
2022/01/13 00:04:58;;;;;;;91.22;54.67;;;;;;;;;;5013590;28;20188;-85
2022/01/13 00:07:27;;;;;;;94.55;55.90;;;;;;;;;;5007304;28;20232;-85
2022/01/13 00:09:55;;;;;;;89.20;53.30;;;;;;;;;;4997071;28;20980;-85
2022/01/13 00:12:25;;;;;;;59.05;37.63;;;;;;;;;;4998054;28;20231;-84
2022/01/13 00:15:08;;;;;;;95.40;55.25;;;;;;;;;;4998063;28;20271;-85
2022/01/13 00:17:56;;;;;;;109.00;57.30;;;;;;;;;;4982961;28;20196;-85
2022/01/13 00:20:35;;;;;;;89.93;56.35;;;;;;;;;;4997866;28;20258;-85
2022/01/13 00:25:53;;;;;;;107.10;59.03;;;;;;;;;;4997693;28;20248;-85
2022/01/13 00:28:22;;;;;;;97.55;55.35;;;;;;;;;;4997352;28;20546;-85
2022/01/13 00:30:54;;;;;;;99.00;56.50;;;;;;;;;;4997381;28;20199;-85
2022/01/13 00:33:24;;;;;;;96.10;53.67;;;;;;;;;;4997607;28;20223;-84
2022/01/13 00:35:52;;;;;;;98.63;54.45;;;;;;;;;;4997325;28;20246;-84
2022/01/13 00:38:21;;;;;;;101.57;55.38;;;;;;;;;;4979987;28;20206;-84
2022/01/13 00:40:48;;;;;;;112.00;57.38;;;;;;;;;;4997178;28;20192;-84
2022/01/13 00:43:16;;;;;;;91.43;53.65;;;;;;;;;;4997674;28;20204;-85
2022/01/13 00:45:43;;;;;;;107.85;57.30;;;;;;;;;;4980105;28;20251;-84
2022/01/13 00:48:11;;;;;;;100.97;54.00;;;;;;;;;;4979752;28;20207;-85
2022/01/13 00:50:39;;;;;;;109.75;56.78;;;;;;;;;;4980170;28;20203;-84
2022/01/13 00:53:06;;;;;;;105.32;56.30;;;;;;;;;;4996635;28;20240;-84
2022/01/13 00:55:47;;;;;;;81.30;49.00;;;;;;;;;;4979575;28;20208;-85
2022/01/13 00:58:15;;;;;;;94.45;54.22;;;;;;;;;;4997255;28;20636;-85
2022/01/13 01:00:42;;;;;;;86.88;55.22;;;;;;;;;;4979837;28;20196;-85
2022/01/13 01:03:10;;;;;;;96.05;54.05;;;;;;;;;;4997050;28;20575;-85
2022/01/13 01:05:41;;;;;;;101.60;54.13;;;;;;;;;;4997047;28;20188;-85
2022/01/13 01:08:10;;;;;;;90.85;52.65;;;;;;;;;;4996713;28;20294;-85
2022/01/13 01:10:39;;;;;;;93.95;56.55;;;;;;;;;;4996738;28;20286;-85
2022/01/13 01:13:12;;;;;;;93.90;55.75;;;;;;;;;;4979172;28;20781;-85
2022/01/13 01:15:43;;;;;;;84.15;49.67;;;;;;;;;;4996961;28;20198;-84
2022/01/13 01:18:23;;;;;;;89.55;55.45;;;;;;;;;;4996446;28;20224;-85
2022/01/13 01:21:04;;;;;;;98.07;54.28;;;;;;;;;;4996959;28;20218;-84
2022/01/13 01:23:34;;;;;;;92.65;53.97;;;;;;;;;;4996675;28;20251;-84
2022/01/13 01:26:08;;;;;;;89.63;52.47;;;;;;;;;;4996709;28;20610;-85
2022/01/13 01:28:45;;;;;;;94.97;55.08;;;;;;;;;;4996677;28;20199;-85
2022/01/13 01:31:13;;;;;;;96.28;58.03;;;;;;;;;;4980792;28;20207;-84
2022/01/13 01:33:52;;;;;;;97.85;57.70;;;;;;;;;;4996515;28;20221;-84
2022/01/13 01:36:20;;;;;;;94.78;52.35;;;;;;;;;;4996203;28;20203;-85
2022/01/13 01:38:51;;;;;;;85.72;53.63;;;;;;;;;;4996633;28;20201;-84
2022/01/13 01:44:06;;;;;;;87.22;54.72;;;;;;;;;;4994996;28;20203;-84
2022/01/13 01:46:35;;;;;;;110.70;62.05;;;;;;;;;;4979347;28;20199;-85
2022/01/13 01:49:07;;;;;;;112.10;56.15;;;;;;;;;;4996374;28;20188;-85
2022/01/13 01:51:35;;;;;;;98.80;58.72;;;;;;;;;;4978733;28;20204;-84
2022/01/13 01:54:02;;;;;;;114.70;59.03;;;;;;;;;;4995925;28;20294;-85
2022/01/13 01:56:31;;;;;;;101.97;58.03;;;;;;;;;;4996434;28;20741;-89
2022/01/13 01:59:02;;;;;;;111.75;58.10;;;;;;;;;;4996148;28;20191;-85
2022/01/13 02:01:29;;;;;;;91.10;51.28;;;;;;;;;;4996136;28;20217;-85
2022/01/13 02:03:57;;;;;;;105.05;58.90;;;;;;;;;;4995887;28;20191;-85
2022/01/13 02:06:24;;;;;;;102.85;55.50;;;;;;;;;;4995564;28;20217;-85
2022/01/13 02:08:51;;;;;;;93.75;56.78;;;;;;;;;;4995554;28;20721;-85
2022/01/13 02:11:19;;;;;;;96.00;57.22;;;;;;;;;;4995879;28;20206;-85
2022/01/13 02:13:51;;;;;;;104.80;57.83;;;;;;;;;;4995028;28;20231;-85
2022/01/13 02:16:37;;;;;;;93.18;58.25;;;;;;;;;;4978982;28;20199;-85
2022/01/13 02:19:06;;;;;;;93.13;57.05;;;;;;;;;;4995779;28;20559;-85
2022/01/13 02:21:35;;;;;;;93.70;55.97;;;;;;;;;;4995795;28;20532;-84
2022/01/13 02:24:03;;;;;;;95.10;60.15;;;;;;;;;;4995225;28;20203;-85
2022/01/13 02:26:30;;;;;;;91.90;55.58;;;;;;;;;;4995369;28;20197;-84
2022/01/13 02:28:59;;;;;;;90.43;55.80;;;;;;;;;;4995721;28;20425;-85
2022/01/13 02:31:27;;;;;;;96.68;55.90;;;;;;;;;;4994414;28;20286;-85
2022/01/13 02:33:54;;;;;;;98.53;59.15;;;;;;;;;;4995458;28;20223;-84
2022/01/13 02:36:27;;;;;;;92.53;54.83;;;;;;;;;;4995452;28;20202;-85
2022/01/13 02:38:56;;;;;;;105.03;60.72;;;;;;;;;;4995132;28;20194;-85
2022/01/13 02:41:24;;;;;;;116.75;62.95;;;;;;;;;;4995373;28;20196;-85
2022/01/13 02:43:53;;;;;;;96.03;58.20;;;;;;;;;;4995391;28;20558;-85
2022/01/13 02:46:30;;;;;;;92.20;54.88;;;;;;;;;;4994989;28;20239;-84
2022/01/13 02:48:57;;;;;;;94.10;58.72;;;;;;;;;;4995077;28;20279;-85
2022/01/13 02:51:28;;;;;;;92.55;56.20;;;;;;;;;;4977983;28;20195;-85
2022/01/13 02:53:57;;;;;;;96.32;57.42;;;;;;;;;;4994708;28;20238;-85
2022/01/13 02:56:24;;;;;;;101.68;57.17;;;;;;;;;;4977437;28;20207;-84
2022/01/13 02:58:52;;;;;;;97.65;59.63;;;;;;;;;;4994807;28;20192;-85
2022/01/13 03:01:19;;;;;;;90.07;49.13;;;;;;;;;;4995076;28;20266;-85
2022/01/13 03:03:47;;;;;;;98.75;60.08;;;;;;;;;;4994738;28;20191;-85
2022/01/13 03:06:15;;;;;;;110.50;63.03;;;;;;;;;;4994831;28;20202;-85
2022/01/13 03:08:44;;;;;;;111.90;60.08;;;;;;;;;;4994556;28;20250;-85
2022/01/13 03:11:13;;;;;;;101.20;60.55;;;;;;;;;;4994775;28;20555;-84
2022/01/13 03:13:41;;;;;;;103.10;61.53;;;;;;;;;;4994445;28;20222;-85
2022/01/13 03:16:09;;;;;;;118.38;59.13;;;;;;;;;;4994555;28;20251;-85
2022/01/13 03:18:38;;;;;;;119.28;59.70;;;;;;;;;;4994777;28;20246;-85
2022/01/13 03:21:06;;;;;;;101.07;61.55;;;;;;;;;;4994682;28;20290;-85
2022/01/13 03:23:36;;;;;;;111.80;60.08;;;;;;;;;;4994352;28;20209;-85
2022/01/13 03:26:04;;;;;;;114.10;62.10;;;;;;;;;;4976828;28;20203;-85
2022/01/13 03:28:39;;;;;;;116.35;63.35;;;;;;;;;;4994431;28;20191;-85
2022/01/13 03:31:06;;;;;;;101.57;56.58;;;;;;;;;;4994432;28;20250;-84
2022/01/13 03:33:34;;;;;;;113.30;65.75;;;;;;;;;;4994145;28;20280;-85
2022/01/13 03:36:03;;;;;;;104.97;63.45;;;;;;;;;;4976732;28;20203;-84
2022/01/13 03:38:32;;;;;;;111.97;61.30;;;;;;;;;;4994295;28;20223;-84
2022/01/13 03:40:59;;;;;;;117.63;62.60;;;;;;;;;;4994325;28;20605;-85
2022/01/13 03:43:27;;;;;;;101.47;60.85;;;;;;;;;;4993199;28;20593;-84
2022/01/13 03:45:56;;;;;;;102.72;61.20;;;;;;;;;;4993991;28;20615;-85
2022/01/13 03:48:24;;;;;;;94.32;54.38;;;;;;;;;;4994231;28;20209;-85
2022/01/13 03:50:51;;;;;;;98.88;52.78;;;;;;;;;;4994080;28;20207;-84
2022/01/13 03:53:48;;;;;;;104.55;55.10;;;;;;;;;;4992750;28;20234;-85
2022/01/13 03:56:35;;;;;;;119.50;58.88;;;;;;;;;;4976500;28;20239;-85
2022/01/13 03:59:33;;;;;;;106.18;59.88;;;;;;;;;;4994212;28;20194;-85
2022/01/13 04:02:03;;;;;;;107.57;55.90;;;;;;;;;;4993743;28;20206;-84
2022/01/13 04:04:34;;;;;;;99.82;53.50;;;;;;;;;;4993948;28;20196;-84
2022/01/13 04:07:19;;;;;;;109.72;60.50;;;;;;;;;;4993535;28;20373;-85
2022/01/13 04:10:10;;;;;;;109.88;59.50;;;;;;;;;;4993839;28;20689;-85
2022/01/13 04:12:38;;;;;;;85.75;49.20;;;;;;;;;;4994012;28;20198;-84
2022/01/13 04:15:11;;;;;;;100.22;55.83;;;;;;;;;;4993645;28;20303;-85
2022/01/13 04:17:40;;;;;;;95.43;56.17;;;;;;;;;;4993416;28;20217;-85
2022/01/13 04:20:09;;;;;;;99.45;54.40;;;;;;;;;;4993672;28;20233;-85
2022/01/13 04:22:36;;;;;;;115.93;58.08;;;;;;;;;;4993623;28;20191;-85
2022/01/13 04:25:06;;;;;;;102.10;54.40;;;;;;;;;;4993640;28;20653;-85
2022/01/13 04:27:38;;;;;;;109.63;54.78;;;;;;;;;;4993967;28;20199;-85
2022/01/13 04:32:55;;;;;;;77.43;43.38;;;;;;;;;;4976792;28;20206;-85
2022/01/13 04:35:23;;;;;;;120.47;56.20;;;;;;;;;;4993549;28;20197;-85
2022/01/13 04:37:50;;;;;;;106.88;57.85;;;;;;;;;;4976818;28;20287;-85
2022/01/13 04:40:18;;;;;;;78.93;43.75;;;;;;;;;;4993443;28;20202;-85
2022/01/13 04:42:46;;;;;;;120.18;58.30;;;;;;;;;;4993620;28;20298;-86
2022/01/13 04:45:13;;;;;;;82.97;44.92;;;;;;;;;;4993828;28;20195;-86
2022/01/13 04:47:41;;;;;;;114.55;56.17;;;;;;;;;;4993808;28;20202;-85
2022/01/13 04:50:11;;;;;;;98.00;54.17;;;;;;;;;;4993943;28;20284;-86
2022/01/13 04:52:38;;;;;;;121.45;56.58;;;;;;;;;;4993493;28;20223;-85
2022/01/13 04:55:12;;;;;;;107.68;54.80;;;;;;;;;;4995244;28;20788;-84
2022/01/13 04:57:41;;;;;;;114.80;54.72;;;;;;;;;;4997511;28;20200;-85
2022/01/13 05:00:09;;;;;;;101.70;51.40;;;;;;;;;;4997292;28;20719;-85
2022/01/13 05:02:37;;;;;;;105.68;54.25;;;;;;;;;;4997038;28;20243;-85
2022/01/13 05:05:04;;;;;;;109.97;54.35;;;;;;;;;;4996951;28;20247;-85
2022/01/13 05:07:33;;;;;;;112.15;58.15;;;;;;;;;;4996796;28;20235;-85
2022/01/13 05:10:01;;;;;;;88.00;46.95;;;;;;;;;;4979629;28;20626;-86
2022/01/13 05:12:33;;;;;;;103.57;51.78;;;;;;;;;;4997139;28;20246;-85
2022/01/13 05:15:03;;;;;;;98.32;53.50;;;;;;;;;;4996789;28;20254;-84
2022/01/13 05:17:58;;;;;;;137.05;58.30;;;;;;;;;;4979578;28;20212;-85
2022/01/13 05:20:27;;;;;;;116.82;57.35;;;;;;;;;;4996691;28;20204;-85
2022/01/13 05:22:56;;;;;;;106.00;55.40;;;;;;;;;;4979352;28;20239;-85
2022/01/13 05:25:36;;;;;;;110.03;51.20;;;;;;;;;;4996718;28;20267;-85
2022/01/13 05:28:15;;;;;;;112.35;54.00;;;;;;;;;;4996729;28;20191;-85
2022/01/13 05:30:54;;;;;;;97.55;51.90;;;;;;;;;;4996562;28;20223;-86
2022/01/13 05:33:21;;;;;;;96.18;52.30;;;;;;;;;;4996595;28;20195;-85
2022/01/13 05:35:51;;;;;;;94.20;52.35;;;;;;;;;;4996546;28;20204;-85
2022/01/13 05:38:19;;;;;;;111.30;55.47;;;;;;;;;;4996539;28;20208;-85
2022/01/13 05:40:47;;;;;;;107.60;55.22;;;;;;;;;;4996339;28;20298;-85
2022/01/13 05:43:14;;;;;;;95.35;48.10;;;;;;;;;;4996333;28;20199;-85
2022/01/13 05:45:43;;;;;;;101.20;51.58;;;;;;;;;;4996444;28;20657;-84
2022/01/13 05:48:11;;;;;;;93.18;47.83;;;;;;;;;;4996165;28;20211;-86
2022/01/13 05:50:38;;;;;;;102.00;50.90;;;;;;;;;;4996159;28;20227;-85
2022/01/13 05:53:06;;;;;;;88.15;45.40;;;;;;;;;;4995860;28;20632;-85
2022/01/13 05:55:35;;;;;;;106.10;51.35;;;;;;;;;;4995717;28;20736;-85
2022/01/13 05:58:03;;;;;;;91.97;47.67;;;;;;;;;;4978618;28;20613;-85
2022/01/13 06:00:30;;;;;;;114.85;51.63;;;;;;;;;;4978580;28;20212;-84
2022/01/13 06:02:58;;;;;;;112.03;49.42;;;;;;;;;;4978488;28;20266;-85
2022/01/13 06:05:29;;;;;;;91.55;45.10;;;;;;;;;;4995785;28;20395;-85
2022/01/13 06:07:57;;;;;;;97.47;42.65;;;;;;;;;;4995201;28;20231;-85
2022/01/13 06:10:24;;;;;;;109.32;49.47;;;;;;;;;;4995677;28;20192;-84
2022/01/13 06:12:53;;;;;;;105.28;45.55;;;;;;;;;;4995926;28;20197;-85
2022/01/13 06:15:24;;;;;;;114.68;49.20;;;;;;;;;;4995944;28;20279;-84
2022/01/13 06:17:57;;;;;;;83.88;43.42;;;;;;;;;;4995127;28;20208;-85
2022/01/13 06:20:27;;;;;;;131.00;53.67;;;;;;;;;;4996037;28;20621;-85
2022/01/13 06:22:55;;;;;;;101.88;48.42;;;;;;;;;;4995319;28;20641;-84
2022/01/13 06:25:24;;;;;;;110.22;51.63;;;;;;;;;;4995169;28;20689;-85
2022/01/13 06:27:53;;;;;;;101.55;46.60;;;;;;;;;;4995324;28;20226;-85
2022/01/13 06:30:21;;;;;;;99.38;48.15;;;;;;;;;;4995628;28;20196;-84
2022/01/13 06:32:48;;;;;;;120.43;51.28;;;;;;;;;;4977977;28;20667;-85
2022/01/13 06:35:16;;;;;;;109.10;49.65;;;;;;;;;;4995542;28;20279;-85
2022/01/13 06:37:43;;;;;;;123.50;52.15;;;;;;;;;;4995172;28;20204;-84
2022/01/13 06:40:12;;;;;;;101.80;48.40;;;;;;;;;;4995450;28;20204;-85
2022/01/13 06:42:39;;;;;;;119.72;54.55;;;;;;;;;;4995257;28;20207;-85
2022/01/13 06:45:10;;;;;;;113.32;49.42;;;;;;;;;;4995107;28;20200;-85
2022/01/13 06:47:38;;;;;;;137.63;55.10;;;;;;;;;;4995343;28;20197;-85
2022/01/13 06:50:06;;;;;;;122.75;48.63;;;;;;;;;;4995399;28;20189;-85
2022/01/13 06:52:33;;;;;;;134.05;53.47;;;;;;;;;;4994496;28;20224;-85
2022/01/13 06:55:02;;;;;;;113.03;49.60;;;;;;;;;;4977097;28;20302;-85
2022/01/13 06:57:30;;;;;;;95.18;42.60;;;;;;;;;;4995008;28;20201;-85
2022/01/13 06:59:57;;;;;;;69.05;36.28;;;;;;;;;;4994808;28;20222;-85
2022/01/13 07:02:29;;;;;;;112.50;50.80;;;;;;;;;;4994676;28;20645;-85
2022/01/13 07:04:56;;;;;;;104.88;48.97;;;;;;;;;;4994959;28;20518;-84
2022/01/13 07:07:23;;;;;;;120.55;47.35;;;;;;;;;;4994546;28;20231;-85
2022/01/13 07:09:51;;;;;;;110.22;47.97;;;;;;;;;;4977757;28;20541;-84
2022/01/13 07:12:18;;;;;;;88.82;45.05;;;;;;;;;;4977142;28;20266;-84
2022/01/13 07:14:46;;;;;;;106.32;49.55;;;;;;;;;;4977555;28;20218;-84
2022/01/13 07:17:13;;;;;;;99.13;49.80;;;;;;;;;;4994607;28;20192;-85
2022/01/13 07:19:42;;;;;;;95.65;46.47;;;;;;;;;;4994554;28;20295;-85
2022/01/13 07:22:09;;;;;;;102.90;47.83;;;;;;;;;;4994592;28;20271;-85
2022/01/13 07:24:37;;;;;;;111.70;49.33;;;;;;;;;;4977087;28;20204;-85
2022/01/13 07:27:05;;;;;;;102.65;47.53;;;;;;;;;;4977238;28;20530;-84
2022/01/13 07:29:32;;;;;;;84.97;42.97;;;;;;;;;;4994212;28;20200;-83
2022/01/13 07:32:00;;;;;;;103.35;49.25;;;;;;;;;;4993983;28;20195;-83
2022/01/13 07:34:27;;;;;;;87.15;45.28;;;;;;;;;;4993722;28;20222;-84
2022/01/13 07:36:56;;;;;;;102.45;48.45;;;;;;;;;;4993822;28;20203;-83
2022/01/13 07:39:23;;;;;;;114.68;52.88;;;;;;;;;;4994016;28;20195;-82
2022/01/13 07:42:03;;;;;;;98.97;46.08;;;;;;;;;;4993740;28;20203;-83
2022/01/13 07:44:30;;;;;;;98.97;45.83;;;;;;;;;;4994078;28;20897;-83
2022/01/13 07:46:58;;;;;;;106.18;46.75;;;;;;;;;;4977075;28;20195;-84
2022/01/13 07:49:25;;;;;;;101.38;48.28;;;;;;;;;;4993612;28;20704;-84
2022/01/13 07:51:52;;;;;;;99.63;49.30;;;;;;;;;;4994053;28;20251;-86
2022/01/13 07:54:21;;;;;;;83.55;42.00;;;;;;;;;;4993237;28;20240;-85
2022/01/13 07:56:49;;;;;;;59.78;36.85;;;;;;;;;;4993803;28;20239;-84
2022/01/13 07:59:16;;;;;;;114.95;51.92;;;;;;;;;;4993879;28;20654;-84
2022/01/13 08:01:43;;;;;;;99.30;49.67;;;;;;;;;;4976318;28;20254;-84
2022/01/13 08:04:10;;;;;;;95.90;49.70;;;;;;;;;;4993979;28;20635;-84
2022/01/13 08:06:38;;;;;;;118.30;52.42;;;;;;;;;;4993601;28;20197;-84
2022/01/13 08:09:05;;;;;;;109.18;51.28;;;;;;;;;;4995527;28;20244;-84
2022/01/13 08:11:34;;;;;;;132.23;52.05;;;;;;;;;;4995847;28;20264;-85
2022/01/13 08:14:01;;;;;;;125.40;54.03;;;;;;;;;;5013021;28;20287;-84
2022/01/13 08:16:33;;;;;;;104.22;53.45;;;;;;;;;;5013371;28;20191;-84
2022/01/13 08:21:45;;;;;;;114.18;50.92;;;;;;;;;;5013183;28;20201;-84
2022/01/13 08:24:14;;;;;;;120.78;51.22;;;;;;;;;;5013582;28;20202;-84
2022/01/13 08:26:42;;;;;;;178.00;56.88;;;;;;;;;;5013497;28;20214;-84
2022/01/13 08:29:10;;;;;;;107.35;48.55;;;;;;;;;;5013886;28;20192;-85
2022/01/13 08:31:37;;;;;;;131.02;52.92;;;;;;;;;;5017102;28;20635;-85
2022/01/13 08:34:17;;;;;;;165.68;57.20;;;;;;;;;;5016792;28;20649;-84
2022/01/13 08:36:44;;;;;;;123.93;52.42;;;;;;;;;;5016842;28;20222;-84
2022/01/13 08:39:11;;;;;;;145.93;55.63;;;;;;;;;;5017400;28;20264;-84
2022/01/13 08:41:40;;;;;;;116.20;52.50;;;;;;;;;;5017126;28;20572;-87
2022/01/13 08:44:09;;;;;;;138.60;54.58;;;;;;;;;;5017080;28;20202;-85
2022/01/13 08:46:36;;;;;;;135.73;53.38;;;;;;;;;;5016771;28;20576;-84
2022/01/13 08:49:04;;;;;;;75.45;43.38;;;;;;;;;;5016851;28;20219;-84
2022/01/13 08:51:31;;;;;;;123.57;55.35;;;;;;;;;;5016929;28;20232;-86
2022/01/13 08:54:00;;;;;;;111.43;50.70;;;;;;;;;;5017112;28;20221;-86
2022/01/13 08:56:27;;;;;;;133.68;55.58;;;;;;;;;;5016949;28;20223;-86
2022/01/13 08:58:54;;;;;;;126.20;54.00;;;;;;;;;;5016873;28;20196;-86
2022/01/13 09:01:23;;;;;;;126.75;53.28;;;;;;;;;;5016873;28;20191;-87
2022/01/13 09:03:51;;;;;;;118.03;52.35;;;;;;;;;;5017101;28;20551;-86
2022/01/13 09:06:18;;;;;;;140.10;57.88;;;;;;;;;;4999765;28;20661;-85
2022/01/13 09:08:46;;;;;;;120.13;54.42;;;;;;;;;;4999700;28;20291;-85
2022/01/13 09:11:14;;;;;;;122.35;52.58;;;;;;;;;;4996930;28;20638;-86
2022/01/13 09:13:41;;;;;;;123.72;53.10;;;;;;;;;;4997214;28;20203;-86
2022/01/13 09:16:16;;;;;;;117.45;52.13;;;;;;;;;;4997143;28;20227;-86
2022/01/13 09:19:07;;;;;;;158.00;57.60;;;;;;;;;;4997310;28;20283;-86
2022/01/13 09:21:37;;;;;;;108.28;49.38;;;;;;;;;;4996812;28;20199;-86
2022/01/13 09:24:04;;;;;;;124.75;53.13;;;;;;;;;;4996564;28;20631;-87
2022/01/13 09:26:32;;;;;;;125.95;55.72;;;;;;;;;;4996794;28;20247;-86
2022/01/13 09:29:01;;;;;;;130.27;57.00;;;;;;;;;;4996684;28;20196;-86
2022/01/13 09:31:28;;;;;;;134.23;57.38;;;;;;;;;;4997046;28;20194;-92
2022/01/13 09:33:57;;;;;;;116.75;52.88;;;;;;;;;;4997242;28;20197;-93
2022/01/13 09:36:24;;;;;;;121.93;51.90;;;;;;;;;;4996797;28;20234;-92
2022/01/13 09:38:52;;;;;;;119.72;55.25;;;;;;;;;;4997062;28;20198;-91
2022/01/13 09:41:20;;;;;;;120.68;55.22;;;;;;;;;;4995401;28;20209;-91
2022/01/13 09:43:47;;;;;;;113.57;50.42;;;;;;;;;;4980212;28;20193;-90
2022/01/13 09:46:15;;;;;;;117.10;55.30;;;;;;;;;;4996766;28;20193;-91
2022/01/13 09:48:46;;;;;;;122.32;52.17;;;;;;;;;;4997158;28;20257;-91
2022/01/13 09:51:15;;;;;;;125.20;51.38;;;;;;;;;;4996573;28;20713;-90
2022/01/13 09:53:45;;;;;;;115.60;56.47;;;;;;;;;;4996358;28;20239;-90
2022/01/13 09:56:12;;;;;;;117.30;53.88;;;;;;;;;;4996453;28;20227;-91
2022/01/13 09:58:43;;;;;;;130.77;54.28;;;;;;;;;;4996755;28;20188;-91
2022/01/13 10:01:11;;;;;;;93.38;47.88;;;;;;;;;;4979221;28;20232;-91
2022/01/13 10:03:38;;;;;;;98.47;50.70;;;;;;;;;;4996480;28;20201;-92
2022/01/13 10:06:10;;;;;;;77.80;43.22;;;;;;;;;;4996729;28;20203;-88
2022/01/13 10:08:47;;;;;;;118.35;57.78;;;;;;;;;;4995784;28;20229;-88
2022/01/13 10:11:35;;;;;;;109.30;54.67;;;;;;;;;;4996287;28;20211;-88
2022/01/13 10:14:06;;;;;;;121.53;57.58;;;;;;;;;;4993517;28;20720;-90
2022/01/13 10:16:33;;;;;;;116.45;50.25;;;;;;;;;;4996409;28;20268;-89
2022/01/13 10:19:00;;;;;;;71.15;41.63;;;;;;;;;;4978510;28;20209;-88
2022/01/13 10:21:28;;;;;;;105.38;53.03;;;;;;;;;;4996262;28;20199;-88
2022/01/13 10:24:06;;;;;;;115.72;53.65;;;;;;;;;;4996173;28;20195;-90
2022/01/13 10:26:34;;;;;;;77.95;42.75;;;;;;;;;;4996193;28;20221;-90
2022/01/13 10:29:02;;;;;;;100.93;53.50;;;;;;;;;;4995903;28;20693;-90
2022/01/13 10:31:44;;;;;;;109.97;52.80;;;;;;;;;;4996429;28;20194;-89
2022/01/13 10:34:21;;;;;;;108.10;53.20;;;;;;;;;;4996003;28;20200;-89
2022/01/13 10:37:03;;;;;;;119.22;53.78;;;;;;;;;;4995581;28;20230;-89
2022/01/13 10:39:46;;;;;;;92.43;47.80;;;;;;;;;;4978549;28;20205;-91
2022/01/13 10:42:43;;;;;;;106.65;51.40;;;;;;;;;;4995301;28;20212;-90
2022/01/13 10:45:05;;;;;;;103.65;52.20;;;;;;;;;;4995417;28;20203;-91
2022/01/13 10:47:33;;;;;;;98.85;48.83;;;;;;;;;;4995762;28;20198;-91
2022/01/13 10:50:01;;;;;;;108.82;53.53;;;;;;;;;;4996374;28;20211;-91
2022/01/13 10:52:31;;;;;;;114.50;55.33;;;;;;;;;;4996168;28;20280;-91
2022/01/13 10:55:02;;;;;;;108.75;52.90;;;;;;;;;;4978265;28;20568;-90
2022/01/13 10:57:32;;;;;;;120.63;53.40;;;;;;;;;;4995210;28;20660;-91
2022/01/13 10:59:59;;;;;;;117.43;56.20;;;;;;;;;;4995561;28;20197;-91
2022/01/13 11:02:27;;;;;;;131.75;57.78;;;;;;;;;;4995499;28;20215;-90
2022/01/13 11:04:55;;;;;;;129.93;59.60;;;;;;;;;;4995623;28;20203;-92
2022/01/13 11:07:28;;;;;;;136.23;58.65;;;;;;;;;;4984006;28;20240;-92
2022/01/13 11:09:57;;;;;;;123.43;56.15;;;;;;;;;;5015102;28;20198;-92
2022/01/13 11:12:35;;;;;;;119.13;56.33;;;;;;;;;;5014963;28;20206;-92
2022/01/13 11:15:04;;;;;;;134.77;57.25;;;;;;;;;;5014900;28;20209;-92
2022/01/13 11:17:33;;;;;;;119.75;56.03;;;;;;;;;;5014780;28;20199;-91
2022/01/13 11:20:01;;;;;;;120.53;57.47;;;;;;;;;;5014932;28;20291;-91
2022/01/13 11:22:29;;;;;;;142.07;64.78;;;;;;;;;;4997224;28;20265;-91
2022/01/13 11:24:58;;;;;;;142.65;62.63;;;;;;;;;;4996999;28;20250;-91
2022/01/13 11:27:25;;;;;;;135.32;59.55;;;;;;;;;;5014712;28;20294;-92
2022/01/13 11:29:58;;;;;;;136.15;58.80;;;;;;;;;;4997007;28;20262;-93
2022/01/13 11:32:25;;;;;;;125.70;58.88;;;;;;;;;;4997158;28;20210;-91
2022/01/13 11:34:55;;;;;;;122.70;56.63;;;;;;;;;;5015079;28;20199;-91
2022/01/13 11:37:29;;;;;;;114.15;51.13;;;;;;;;;;5014129;28;20228;-90
2022/01/13 11:39:58;;;;;;;123.63;55.15;;;;;;;;;;5015251;28;20318;-88
2022/01/13 11:42:26;;;;;;;116.28;55.92;;;;;;;;;;5015054;28;20580;-86
2022/01/13 11:45:12;;;;;;;112.72;52.22;;;;;;;;;;5014193;28;20191;-87
2022/01/13 11:47:43;;;;;;;112.30;50.15;;;;;;;;;;5014333;28;20532;-87
2022/01/13 11:50:17;;;;;;;77.93;45.67;;;;;;;;;;5015267;28;20801;-86
2022/01/13 11:52:50;;;;;;;113.82;57.63;;;;;;;;;;4996853;28;20301;-89
2022/01/13 11:55:25;;;;;;;121.95;58.63;;;;;;;;;;4998240;28;20190;-87
2022/01/13 11:57:52;;;;;;;98.10;49.58;;;;;;;;;;5014466;28;20257;-89
2022/01/13 12:00:24;;;;;;;103.63;52.28;;;;;;;;;;5014225;28;20213;-88
2022/01/13 12:02:59;;;;;;;102.18;54.00;;;;;;;;;;5014488;28;20262;-89
2022/01/13 12:05:29;;;;;;;110.72;53.33;;;;;;;;;;5013844;28;20221;-90
2022/01/13 12:07:57;;;;;;;71.93;46.38;;;;;;;;;;5004141;28;20750;-88
2022/01/13 12:10:43;;;;;;;86.00;48.10;;;;;;;;;;4994474;28;20654;-89
2022/01/13 12:13:25;;;;;;;93.75;50.67;;;;;;;;;;4994410;28;20266;-86
2022/01/13 12:15:53;;;;;;;102.60;52.30;;;;;;;;;;4993396;28;20226;-87
2022/01/13 12:18:42;;;;;;;97.85;50.45;;;;;;;;;;4977461;28;20647;-88
2022/01/13 12:21:25;;;;;;;85.60;47.50;;;;;;;;;;4976901;28;20617;-88
2022/01/13 12:23:52;;;;;;;91.43;48.60;;;;;;;;;;4976702;28;20659;-88
2022/01/13 12:26:39;;;;;;;73.15;44.85;;;;;;;;;;4994615;28;20199;-87
2022/01/13 12:29:12;;;;;;;81.80;49.38;;;;;;;;;;4994304;28;20197;-88
2022/01/13 12:31:49;;;;;;;83.05;48.10;;;;;;;;;;4993850;28;20250;-88
2022/01/13 12:34:32;;;;;;;87.90;50.33;;;;;;;;;;4977491;28;20209;-90
2022/01/13 12:37:03;;;;;;;94.18;50.03;;;;;;;;;;4982909;28;20237;-90
2022/01/13 12:39:31;;;;;;;95.55;49.25;;;;;;;;;;4977664;28;20293;-87
2022/01/13 12:42:05;;;;;;;100.75;49.42;;;;;;;;;;4994623;28;20685;-89
2022/01/13 12:47:16;;;;;;;93.22;49.92;;;;;;;;;;4992844;28;20211;-90
2022/01/13 12:49:44;;;;;;;108.95;54.45;;;;;;;;;;4994131;28;20654;-88
2022/01/13 12:52:20;;;;;;;111.78;57.67;;;;;;;;;;4994367;28;20307;-89
2022/01/13 12:54:48;;;;;;;111.00;56.60;;;;;;;;;;4976842;28;20208;-88
2022/01/13 12:59:57;;;;;;;104.45;58.90;;;;;;;;;;4993811;28;20294;-89
2022/01/13 13:02:28;;;;;;;108.50;57.88;;;;;;;;;;4994326;28;20203;-89
2022/01/13 13:04:58;;;;;;;108.68;56.80;;;;;;;;;;4994211;28;20205;-87
2022/01/13 13:07:27;;;;;;;111.97;56.50;;;;;;;;;;4982173;28;20273;-88
2022/01/13 13:10:03;;;;;;;115.43;56.63;;;;;;;;;;5013515;28;20204;-88
2022/01/13 13:12:35;;;;;;;113.43;56.10;;;;;;;;;;5013794;28;20220;-89
2022/01/13 13:17:49;;;;;;;95.60;52.75;;;;;;;;;;5002337;28;20697;-88
2022/01/13 13:20:25;;;;;;;100.07;55.38;;;;;;;;;;5017091;28;20598;-88
2022/01/13 13:22:56;;;;;;;93.30;51.40;;;;;;;;;;4999324;28;20207;-89
2022/01/13 13:25:33;;;;;;;113.63;55.05;;;;;;;;;;5016769;28;20193;-90
2022/01/13 13:28:15;;;;;;;97.72;51.75;;;;;;;;;;5017100;28;20195;-90
2022/01/13 13:30:46;;;;;;;84.20;49.58;;;;;;;;;;5016414;28;20211;-90
2022/01/13 13:33:13;;;;;;;83.10;50.20;;;;;;;;;;5016464;28;20212;-90
2022/01/13 13:35:41;;;;;;;98.45;53.70;;;;;;;;;;5016664;28;20660;-90
2022/01/13 13:38:13;;;;;;;93.93;54.10;;;;;;;;;;5017063;28;20199;-90
2022/01/13 13:40:45;;;;;;;108.70;58.10;;;;;;;;;;5016378;28;20234;-88
2022/01/13 13:43:13;;;;;;;108.13;57.10;;;;;;;;;;5016589;28;20195;-91
2022/01/13 13:45:41;;;;;;;113.50;60.05;;;;;;;;;;5016461;28;21014;-88
2022/01/13 13:48:08;;;;;;;102.90;55.78;;;;;;;;;;5016312;28;20191;-87
2022/01/13 13:50:36;;;;;;;119.55;59.00;;;;;;;;;;5016131;28;20216;-88
2022/01/13 13:53:16;;;;;;;116.05;59.72;;;;;;;;;;5016560;28;20636;-88
2022/01/13 13:55:59;;;;;;;118.15;59.53;;;;;;;;;;5016156;28;20539;-87
2022/01/13 13:58:26;;;;;;;125.22;61.55;;;;;;;;;;5016110;28;20646;-87
2022/01/13 14:01:01;;;;;;;105.97;57.28;;;;;;;;;;4998701;28;20230;-87
2022/01/13 14:03:41;;;;;;;104.53;53.80;;;;;;;;;;5015836;28;20198;-88
2022/01/13 14:06:09;;;;;;;107.43;56.00;;;;;;;;;;4998984;28;20213;-88
2022/01/13 14:08:53;;;;;;;97.85;54.10;;;;;;;;;;4998358;28;20293;-88
2022/01/13 14:11:22;;;;;;;114.80;59.60;;;;;;;;;;5015551;28;20679;-88
2022/01/13 14:13:49;;;;;;;117.63;55.80;;;;;;;;;;4998716;28;20269;-89
2022/01/13 14:16:34;;;;;;;116.68;60.13;;;;;;;;;;5016069;28;20215;-89
2022/01/13 14:19:07;;;;;;;108.25;56.22;;;;;;;;;;5015842;28;20212;-89
2022/01/13 14:21:51;;;;;;;97.88;56.15;;;;;;;;;;4998354;28;20206;-89
2022/01/13 14:24:28;;;;;;;105.82;54.83;;;;;;;;;;5015887;28;20222;-89
2022/01/13 14:27:05;;;;;;;114.60;58.35;;;;;;;;;;5012242;28;20284;-88
2022/01/13 14:29:35;;;;;;;117.03;60.63;;;;;;;;;;5015737;28;20193;-89
2022/01/13 14:32:18;;;;;;;121.38;57.45;;;;;;;;;;5015280;28;20734;-88
2022/01/13 14:34:46;;;;;;;149.05;71.75;;;;;;;;;;5015798;28;20202;-88
2022/01/13 14:37:13;;;;;;;160.48;78.85;;;;;;;;;;5015518;28;20235;-89
2022/01/13 14:39:42;;;;;;;144.27;72.28;;;;;;;;;;5015546;28;20195;-89
2022/01/13 14:42:15;;;;;;;180.40;101.03;;;;;;;;;;5015647;28;20312;-89
2022/01/13 14:44:43;;;;;;;175.15;97.25;;;;;;;;;;5014408;28;20656;-88
2022/01/13 14:47:11;;;;;;;129.32;64.85;;;;;;;;;;5015167;28;20688;-88
2022/01/13 14:49:40;;;;;;;115.30;59.00;;;;;;;;;;5015751;28;20192;-89